Kodiak, AK

4:42 PM AKDT on July 28, 2014 (GMT -0800)
Pillar Mountain (KAKKODIA8) Elev 1204 ft | 57.79 °N, 152.44 °W | Change Station

Current weather conditions updated 3 minutes ago

Overcast
Overcast
54.9 °F
Feels Like 54.9 °F
N
4.7
Wind Variable Wind from NW

Tomorrow is forecast to be Cooler than today. Showers possible.

Today
High -- | Low -- °F
--% Chance of Precip.
Yesterday
High -- | Low -- °F
Precip. -- in
5:56 AM 10:34 PM
Waxing Crescent, 4% visible
Pressure 30.04 in
Visibility 10.0 miles
Clouds Overcast 8500 ft
Dew Point 50 °F
Humidity 84%
Rainfall 0.00 in
Snow Depth Not available.
UV 2 out of 12
Pollen Not available.
Air Quality Not available.
Flu Activity Not available.
METAR PADQ 282353Z 05003KT 10SM OVC085 15/12 A3003 RMK AO2 RAB08E20 SLP170 P0000 60000 T01500117 10167 20150 58014

More Conditions Fewer Conditions

Pressure 30.04 in
Visibility 10.0 miles
Clouds Overcast 8500 ft
Dew Point 50 °F
Humidity 84%
Rainfall 0.00 in
Snow Depth Not available.
UV 2 out of 12
Pollen Not available.
Air Quality Not available.
Flu Activity Not available.
METAR PADQ 282353Z 05003KT 10SM OVC085 15/12 A3003 RMK AO2 RAB08E20 SLP170 P0000 60000 T01500117 10167 20150 58014

More Conditions Fewer Conditions

10-Day Weather Forecast

Almanac

Astronomy

Jul. 28, 2014 Rise Set
Actual Time 5:56 AM AKDT 10:34 PM AKDT
Civil Twilight 5:01 AM AKDT 11:29 PM AKDT
Nautical Twilight 3:23 AM AKDT 1:03 AM AKDT
Astronomical Twilight Sun does not rise Sun does not rise
Moon 8:26 AM AKDT (7/28) 10:37 PM AKDT (7/28)
Length of Visible Light 18h 27m
Length of Day
16h 38m
Tomorrow will be 4m 6s shorter.
Waxing Crescent, 4% of the Moon is Illuminated
Today
Waxing Crescent
Aug 3
First Quarter
Aug 10
Full
Aug 17
Last Quarter
Aug 25
New

Today's Extremes

State Highs State Lows

Community

WunderPhotos

Upload Photos

1,738,571 photos uploaded!

WunderBlogs® & News

Nearby

Snow Depth

Station Depth Elevation
Port Graham 0 in 300 ft
Mcneil Canyon 1 in 1320 ft
MF Bradley River 198 in 2300 ft
Cooper Lake 2 in 1200 ft
Grouse Creek Divide 0 in 700 ft

Earthquake Activity

City Distance Mag. Time & Date
No recent earthquake activity has been reported nearby.
Minimum magnitude displayed is 2.5.

Coastal Water Temperatures

Place Temperature
No Stations Reporting

Nearby Weather Stations

Station Location Temp. Dew Point Humidity Wind Precip. Elev Updated Type
Pillar Mountain, Kodiak, AK 54.9 °F 50 °F 84% NW  at  4.7 mph - / hr 1204 ft 4:39 PM AKDT Normal
Bob Plyler on Selief Lane, Kodiak, AK 62.6 °F 42 °F 47% SW  at  0.0 mph 0.00 in / hr 115 ft 4:42 PM AKDT Rapid Fire
AKDOT Pasagshak Road Kodiak @ MP 2.1, Kodiak, AK 58 °F 50 °F 74% SE  at  12 mph 0.00 in / hr 380 ft 3:51 PM AKDT MADIS
APRSWXNET Kodiak AK , Kodiak, AK 58 °F 53 °F 83% South  at  6 mph 0.00 in / hr 36 ft 2:24 PM AKDT MADIS

Show More Stations Show Fewer Stations